This is the latest recevied weather packets stored in our database for station/object KM4LTG. If no packets are shown the sender has not sent any weather packets the latest 10 day(s).
| Time | Temp. | Humidity | Pressure | Rain* | Wind** | Luminosity | Snow |
|---|---|---|---|---|---|---|---|
| 1777753365 | 21.67° C | 90% | 1011.9 hPa | 0 mm | - | - | - |
| 1777753075 | 21.67° C | 90% | 1012.1 hPa | 0 mm | - | - | - |
| 1777752802 | 21.67° C | 90% | 1012.4 hPa | 0 mm | - | - | - |
| 1777752524 | 21.67° C | 89% | 1012.4 hPa | 0 mm | - | - | - |
| 1777752225 | 21.67° C | 90% | 1012.2 hPa | 0 mm | - | - | - |
| 1777751960 | 21.67° C | 89% | 1012.5 hPa | 0 mm | - | - | - |
| 1777751695 | 21.67° C | 89% | 1012.2 hPa | 0 mm | - | - | - |
| 1777751455 | 21.67° C | 89% | 1012.2 hPa | 0 mm | - | - | - |
| 1777750941 | 21.67° C | 88% | 1012.1 hPa | 0.76 mm | - | - | - |
| 1777750697 | 21.67° C | 88% | 1012.2 hPa | 1.02 mm | - | - | - |
| 1777750420 | 21.67° C | 87% | 1012.4 hPa | 2.03 mm | - | - | - |
| 1777750154 | 21.67° C | 86% | 1012.2 hPa | 89.41 mm | - | - | - |
| 1777749907 | 22.78° C | 84% | 1012.4 hPa | 174.5 mm | - | - | - |
| 1777749655 | 22.78° C | 84% | 1012.4 hPa | 174.5 mm | - | - | - |
| 1777749365 | 24.44° C | 80% | 1012.7 hPa | 164.59 mm | - | - | - |
| 1777749112 | 26.67° C | 85% | 1012.4 hPa | 10.92 mm | - | - | - |
| 1777748860 | 26.67° C | 85% | 1012.4 hPa | 0 mm | - | - | - |
| 1777748604 | 26.67° C | 84% | 1012.6 hPa | 0 mm | - | - | - |
| 1777748325 | 26.67° C | 84% | 1012.5 hPa | 0 mm | - | - | - |
| 1777748060 | 26.67° C | 84% | 1012.3 hPa | 0 mm | - | - | - |
| 1777747805 | 26.67° C | 84% | 1012.5 hPa | 0 mm | - | - | - |
| 1777747525 | 26.67° C | 84% | 1012.5 hPa | 0 mm | - | - | - |
| 1777747274 | 26.67° C | 84% | 1012.5 hPa | 0 mm | - | - | - |
| 1777747025 | 26.67° C | 84% | 1012.5 hPa | 0 mm | - | - | - |
| 1777746738 | 26.67° C | 84% | 1012.5 hPa | 0 mm | - | - | - |
* Rain latest hour (hover to see other rain measurements)
** Current wind speed in m/s (hover to see current wind gust speed)